sensor_id;sensor_type;location;lat;lon;timestamp;pressure;altitude;pressure_sealevel;temperature;humidity
42247;BME280;27913;42.722;23.268;2023-03-14T00:04:54;95076.69;;;2.33;64.85
42247;BME280;27913;42.722;23.268;2023-03-14T00:07:20;95071.09;;;2.28;65.11
42247;BME280;27913;42.722;23.268;2023-03-14T00:09:45;95003.38;;;1.80;65.36
42247;BME280;27913;42.722;23.268;2023-03-14T00:12:11;95100.06;;;2.43;65.45
42247;BME280;27913;42.722;23.268;2023-03-14T00:14:37;95181.34;;;2.95;65.41
42247;BME280;27913;42.722;23.268;2023-03-14T00:17:02;95234.56;;;3.20;65.55
42247;BME280;27913;42.722;23.268;2023-03-14T00:19:27;95160.41;;;2.76;65.50
42247;BME280;27913;42.722;23.268;2023-03-14T00:21:53;95045.66;;;2.12;65.41
42247;BME280;27913;42.722;23.268;2023-03-14T00:24:19;95131.41;;;2.61;65.29
42247;BME280;27913;42.722;23.268;2023-03-14T00:26:44;95212.16;;;3.19;64.77
42247;BME280;27913;42.722;23.268;2023-03-14T00:29:09;95156.16;;;2.85;64.60
42247;BME280;27913;42.722;23.268;2023-03-14T00:31:35;95208.19;;;3.25;63.35
42247;BME280;27913;42.722;23.268;2023-03-14T00:34:01;95073.56;;;2.39;62.03
42247;BME280;27913;42.722;23.268;2023-03-14T00:36:26;95000.28;;;1.96;61.58
42247;BME280;27913;42.722;23.268;2023-03-14T00:38:52;95213.09;;;3.08;61.25
42247;BME280;27913;42.722;23.268;2023-03-14T00:41:23;95109.25;;;2.47;60.71
42247;BME280;27913;42.722;23.268;2023-03-14T00:43:49;95107.72;;;2.35;61.23
42247;BME280;27913;42.722;23.268;2023-03-14T00:46:14;95191.84;;;2.83;62.04
42247;BME280;27913;42.722;23.268;2023-03-14T00:48:40;95205.94;;;2.90;62.28
42247;BME280;27913;42.722;23.268;2023-03-14T00:51:07;95201.44;;;2.83;63.83
42247;BME280;27913;42.722;23.268;2023-03-14T00:53:37;95164.19;;;2.62;63.60
42247;BME280;27913;42.722;23.268;2023-03-14T00:56:06;95199.63;;;2.83;62.47
42247;BME280;27913;42.722;23.268;2023-03-14T00:58:32;95195.94;;;2.76;61.90
42247;BME280;27913;42.722;23.268;2023-03-14T01:00:57;95101.75;;;2.13;62.82
42247;BME280;27913;42.722;23.268;2023-03-14T01:03:23;95191.56;;;2.67;63.00
42247;BME280;27913;42.722;23.268;2023-03-14T01:05:49;95194.84;;;2.69;62.41
42247;BME280;27913;42.722;23.268;2023-03-14T01:08:15;95091.78;;;2.08;62.33
42247;BME280;27913;42.722;23.268;2023-03-14T01:10:41;95132.81;;;2.24;63.03
42247;BME280;27913;42.722;23.268;2023-03-14T01:13:07;95127.84;;;2.11;63.14
42247;BME280;27913;42.722;23.268;2023-03-14T01:15:34;95174.72;;;2.51;63.57
42247;BME280;27913;42.722;23.268;2023-03-14T01:18:00;95121.72;;;2.12;63.80
42247;BME280;27913;42.722;23.268;2023-03-14T01:20:25;95174.78;;;2.39;64.09
42247;BME280;27913;42.722;23.268;2023-03-14T01:22:51;94852.28;;;0.44;64.11
42247;BME280;27913;42.722;23.268;2023-03-14T01:25:17;95105.50;;;1.89;64.05
42247;BME280;27913;42.722;23.268;2023-03-14T01:27:43;95105.25;;;1.92;64.35
42247;BME280;27913;42.722;23.268;2023-03-14T01:30:09;95040.44;;;1.61;64.33
42247;BME280;27913;42.722;23.268;2023-03-14T01:32:35;95161.22;;;2.26;65.20
42247;BME280;27913;42.722;23.268;2023-03-14T01:35:01;95147.28;;;2.27;65.49
42247;BME280;27913;42.722;23.268;2023-03-14T01:37:26;95157.78;;;2.15;65.28
42247;BME280;27913;42.722;23.268;2023-03-14T01:39:52;95005.53;;;1.34;65.93
42247;BME280;27913;42.722;23.268;2023-03-14T01:42:17;94904.91;;;0.76;65.77
42247;BME280;27913;42.722;23.268;2023-03-14T01:44:57;95031.66;;;1.52;65.44
42247;BME280;27913;42.722;23.268;2023-03-14T01:47:23;95147.06;;;2.30;65.43
42247;BME280;27913;42.722;23.268;2023-03-14T01:50:09;95041.44;;;1.79;64.40
42247;BME280;27913;42.722;23.268;2023-03-14T01:52:44;94877.00;;;0.80;65.01
42247;BME280;27913;42.722;23.268;2023-03-14T01:55:22;95036.06;;;1.61;65.12
42247;BME280;27913;42.722;23.268;2023-03-14T01:57:55;94957.53;;;1.08;64.88
42247;BME280;27913;42.722;23.268;2023-03-14T02:00:23;95075.44;;;1.76;64.88
42247;BME280;27913;42.722;23.268;2023-03-14T02:03:10;95127.47;;;2.16;65.66
42247;BME280;27913;42.722;23.268;2023-03-14T02:05:39;94996.09;;;1.32;66.69
42247;BME280;27913;42.722;23.268;2023-03-14T02:08:10;95033.75;;;1.58;66.42
42247;BME280;27913;42.722;23.268;2023-03-14T02:10:43;94885.09;;;0.65;66.97
42247;BME280;27913;42.722;23.268;2023-03-14T02:13:10;95130.22;;;2.24;67.39
42247;BME280;27913;42.722;23.268;2023-03-14T02:15:37;95136.63;;;2.20;67.61
42247;BME280;27913;42.722;23.268;2023-03-14T02:18:04;95109.78;;;2.00;67.03
42247;BME280;27913;42.722;23.268;2023-03-14T02:23:07;95126.34;;;2.09;67.40
42247;BME280;27913;42.722;23.268;2023-03-14T02:25:53;95056.25;;;1.58;67.52
42247;BME280;27913;42.722;23.268;2023-03-14T02:28:21;95136.25;;;1.93;66.85
42247;BME280;27913;42.722;23.268;2023-03-14T02:30:47;95131.66;;;1.76;67.94
42247;BME280;27913;42.722;23.268;2023-03-14T02:33:15;94894.72;;;0.10;68.81
42247;BME280;27913;42.722;23.268;2023-03-14T02:35:48;95140.09;;;1.68;68.90
42247;BME280;27913;42.722;23.268;2023-03-14T02:38:20;94929.78;;;0.46;68.08
42247;BME280;27913;42.722;23.268;2023-03-14T02:40:48;95143.25;;;1.72;67.66
42247;BME280;27913;42.722;23.268;2023-03-14T02:43:14;94880.41;;;-0.05;67.39
42247;BME280;27913;42.722;23.268;2023-03-14T02:45:44;95036.34;;;1.05;67.58
42247;BME280;27913;42.722;23.268;2023-03-14T02:48:14;95133.47;;;1.54;66.96
42247;BME280;27913;42.722;23.268;2023-03-14T02:50:41;95141.22;;;1.54;67.53
42247;BME280;27913;42.722;23.268;2023-03-14T02:53:06;95067.00;;;1.00;67.63
42247;BME280;27913;42.722;23.268;2023-03-14T02:55:32;95079.16;;;1.10;67.45
42247;BME280;27913;42.722;23.268;2023-03-14T02:57:58;95069.19;;;1.05;67.37
42247;BME280;27913;42.722;23.268;2023-03-14T03:00:24;95141.69;;;1.38;67.65
42247;BME280;27913;42.722;23.268;2023-03-14T03:02:50;95087.22;;;0.95;67.84
42247;BME280;27913;42.722;23.268;2023-03-14T03:05:16;95143.81;;;1.32;68.26
42247;BME280;27913;42.722;23.268;2023-03-14T03:07:41;94941.38;;;0.09;67.42
42247;BME280;27913;42.722;23.268;2023-03-14T03:10:08;95072.97;;;1.01;67.33
42247;BME280;27913;42.722;23.268;2023-03-14T03:12:33;95152.03;;;1.38;67.52
42247;BME280;27913;42.722;23.268;2023-03-14T03:14:59;94980.97;;;0.42;68.06
42247;BME280;27913;42.722;23.268;2023-03-14T03:17:24;95150.84;;;1.42;67.67
42247;BME280;27913;42.722;23.268;2023-03-14T03:19:50;95145.41;;;1.45;67.61
42247;BME280;27913;42.722;23.268;2023-03-14T03:22:15;95070.47;;;1.11;67.58
42247;BME280;27913;42.722;23.268;2023-03-14T03:24:41;95066.28;;;0.98;67.16
42247;BME280;27913;42.722;23.268;2023-03-14T03:27:06;95147.94;;;1.35;67.03
42247;BME280;27913;42.722;23.268;2023-03-14T03:29:32;95144.53;;;1.35;66.87
42247;BME280;27913;42.722;23.268;2023-03-14T03:31:57;95104.81;;;1.13;66.93
42247;BME280;27913;42.722;23.268;2023-03-14T03:34:23;95035.13;;;0.67;66.96
42247;BME280;27913;42.722;23.268;2023-03-14T03:36:48;95142.56;;;1.27;66.99
42247;BME280;27913;42.722;23.268;2023-03-14T03:39:14;95127.53;;;1.20;66.58
42247;BME280;27913;42.722;23.268;2023-03-14T03:41:39;95102.56;;;0.98;66.88
42247;BME280;27913;42.722;23.268;2023-03-14T03:44:05;95149.13;;;1.10;67.83
42247;BME280;27913;42.722;23.268;2023-03-14T03:46:31;95148.84;;;0.91;68.50
42247;BME280;27913;42.722;23.268;2023-03-14T03:48:58;95116.97;;;0.79;68.36
42247;BME280;27913;42.722;23.268;2023-03-14T03:51:24;94939.75;;;-0.37;67.82
42247;BME280;27913;42.722;23.268;2023-03-14T03:53:50;95136.69;;;0.92;68.14
42247;BME280;27913;42.722;23.268;2023-03-14T03:56:16;95146.59;;;0.98;67.84
42247;BME280;27913;42.722;23.268;2023-03-14T03:58:41;95146.31;;;1.01;67.41
42247;BME280;27913;42.722;23.268;2023-03-14T04:01:07;95144.56;;;1.02;67.52
42247;BME280;27913;42.722;23.268;2023-03-14T04:03:33;95091.00;;;0.69;67.53
42247;BME280;27913;42.722;23.268;2023-03-14T04:06:03;95149.13;;;1.10;67.76
42247;BME280;27913;42.722;23.268;2023-03-14T04:08:29;95129.34;;;1.08;67.72
42247;BME280;27913;42.722;23.268;2023-03-14T04:11:00;95151.97;;;1.06;67.92
42247;BME280;27913;42.722;23.268;2023-03-14T04:13:26;94913.09;;;-0.37;67.50
42247;BME280;27913;42.722;23.268;2023-03-14T04:15:53;95016.88;;;0.35;67.74
42247;BME280;27913;42.722;23.268;2023-03-14T04:18:19;95129.97;;;1.22;67.51
42247;BME280;27913;42.722;23.268;2023-03-14T04:20:44;94991.09;;;0.45;67.52
42247;BME280;27913;42.722;23.268;2023-03-14T04:23:10;95131.56;;;1.35;67.09
42247;BME280;27913;42.722;23.268;2023-03-14T04:25:36;94891.00;;;-0.08;67.29
42247;BME280;27913;42.722;23.268;2023-03-14T04:28:01;95017.78;;;0.79;67.81
42247;BME280;27913;42.722;23.268;2023-03-14T04:30:27;95054.13;;;0.99;67.39
42247;BME280;27913;42.722;23.268;2023-03-14T04:32:52;94903.69;;;-0.05;67.01
42247;BME280;27913;42.722;23.268;2023-03-14T04:35:18;95117.91;;;1.32;67.46
42247;BME280;27913;42.722;23.268;2023-03-14T04:37:43;95104.13;;;1.32;66.83
42247;BME280;27913;42.722;23.268;2023-03-14T04:40:10;95097.44;;;1.29;67.25
42247;BME280;27913;42.722;23.268;2023-03-14T04:42:36;94836.78;;;-0.20;67.30
42247;BME280;27913;42.722;23.268;2023-03-14T04:45:01;95096.56;;;1.40;67.75
42247;BME280;27913;42.722;23.268;2023-03-14T04:47:27;95022.63;;;0.93;68.12
42247;BME280;27913;42.722;23.268;2023-03-14T04:49:53;95097.22;;;1.42;68.65
42247;BME280;27913;42.722;23.268;2023-03-14T04:52:18;95041.31;;;0.97;68.89
42247;BME280;27913;42.722;23.268;2023-03-14T04:54:44;95097.47;;;1.39;69.05
42247;BME280;27913;42.722;23.268;2023-03-14T04:57:09;95100.78;;;1.41;69.04
42247;BME280;27913;42.722;23.268;2023-03-14T04:59:35;95099.81;;;1.42;68.85
42247;BME280;27913;42.722;23.268;2023-03-14T05:02:00;95099.59;;;1.46;69.10
42247;BME280;27913;42.722;23.268;2023-03-14T05:04:25;95090.53;;;1.40;69.61
42247;BME280;27913;42.722;23.268;2023-03-14T05:06:51;94924.31;;;0.39;69.13
42247;BME280;27913;42.722;23.268;2023-03-14T05:09:17;95029.63;;;1.03;68.52
42247;BME280;27913;42.722;23.268;2023-03-14T05:11:42;95033.38;;;1.10;68.26
42247;BME280;27913;42.722;23.268;2023-03-14T05:14:08;95079.06;;;1.42;69.11
42247;BME280;27913;42.722;23.268;2023-03-14T05:16:33;94855.09;;;0.10;69.43
42247;BME280;27913;42.722;23.268;2023-03-14T05:18:58;95067.09;;;1.41;69.26
42247;BME280;27913;42.722;23.268;2023-03-14T05:21:26;95063.03;;;1.49;70.78
42247;BME280;27913;42.722;23.268;2023-03-14T05:23:52;95085.97;;;1.53;70.86
42247;BME280;27913;42.722;23.268;2023-03-14T05:26:17;94900.66;;;0.44;71.08
42247;BME280;27913;42.722;23.268;2023-03-14T05:28:43;95067.63;;;1.66;70.01
42247;BME280;27913;42.722;23.268;2023-03-14T05:31:09;94908.34;;;0.55;69.04
42247;BME280;27913;42.722;23.268;2023-03-14T05:33:34;95029.53;;;1.36;68.86
42247;BME280;27913;42.722;23.268;2023-03-14T05:36:00;95029.19;;;1.50;68.51
42247;BME280;27913;42.722;23.268;2023-03-14T05:38:25;94907.22;;;0.79;68.78
42247;BME280;27913;42.722;23.268;2023-03-14T05:40:51;94897.59;;;0.60;67.91
42247;BME280;27913;42.722;23.268;2023-03-14T05:43:16;95089.78;;;1.80;67.56
42247;BME280;27913;42.722;23.268;2023-03-14T05:45:42;95025.47;;;1.43;68.20
42247;BME280;27913;42.722;23.268;2023-03-14T05:48:08;94940.56;;;0.94;68.47
42247;BME280;27913;42.722;23.268;2023-03-14T05:50:34;95066.16;;;1.74;67.92
42247;BME280;27913;42.722;23.268;2023-03-14T05:52:59;95095.66;;;1.83;67.67
42247;BME280;27913;42.722;23.268;2023-03-14T05:55:25;95089.91;;;1.79;68.24
42247;BME280;27913;42.722;23.268;2023-03-14T05:57:50;94972.09;;;0.99;68.09
42247;BME280;27913;42.722;23.268;2023-03-14T06:00:16;95085.91;;;1.65;68.50
42247;BME280;27913;42.722;23.268;2023-03-14T06:02:42;94943.47;;;0.79;67.57
42247;BME280;27913;42.722;23.268;2023-03-14T06:05:07;95089.97;;;1.58;67.77
42247;BME280;27913;42.722;23.268;2023-03-14T06:07:33;95023.63;;;1.24;68.11
42247;BME280;27913;42.722;23.268;2023-03-14T06:09:59;95019.09;;;1.16;67.41
42247;BME280;27913;42.722;23.268;2023-03-14T06:12:24;95087.84;;;1.51;67.39
42247;BME280;27913;42.722;23.268;2023-03-14T06:14:50;95043.66;;;1.22;67.69
42247;BME280;27913;42.722;23.268;2023-03-14T06:17:16;95091.16;;;1.53;67.82
42247;BME280;27913;42.722;23.268;2023-03-14T06:19:42;94936.69;;;0.57;67.94
42247;BME280;27913;42.722;23.268;2023-03-14T06:22:07;95083.00;;;1.58;67.69
42247;BME280;27913;42.722;23.268;2023-03-14T06:24:33;94983.34;;;0.88;67.98
42247;BME280;27913;42.722;23.268;2023-03-14T06:26:58;94976.53;;;0.66;68.25
42247;BME280;27913;42.722;23.268;2023-03-14T06:29:24;95101.09;;;1.48;67.78
42247;BME280;27913;42.722;23.268;2023-03-14T06:31:49;95092.38;;;1.49;67.56
42247;BME280;27913;42.722;23.268;2023-03-14T06:34:15;95096.72;;;1.49;67.83
42247;BME280;27913;42.722;23.268;2023-03-14T06:36:40;95080.53;;;1.56;67.55
42247;BME280;27913;42.722;23.268;2023-03-14T06:39:06;95091.44;;;1.60;67.34
42247;BME280;27913;42.722;23.268;2023-03-14T06:41:31;95087.25;;;1.69;67.06
42247;BME280;27913;42.722;23.268;2023-03-14T06:43:58;95080.63;;;1.76;66.94
42247;BME280;27913;42.722;23.268;2023-03-14T06:46:23;95086.38;;;1.90;66.67
42247;BME280;27913;42.722;23.268;2023-03-14T06:48:49;95080.16;;;2.02;66.34
42247;BME280;27913;42.722;23.268;2023-03-14T06:51:14;95071.31;;;2.05;65.90
42247;BME280;27913;42.722;23.268;2023-03-14T06:53:40;94843.88;;;0.74;65.41
42247;BME280;27913;42.722;23.268;2023-03-14T06:56:06;95050.41;;;2.16;65.93
42247;BME280;27913;42.722;23.268;2023-03-14T06:58:31;94933.72;;;1.55;66.05
42247;BME280;27913;42.722;23.268;2023-03-14T07:00:57;94990.81;;;1.85;65.56
42247;BME280;27913;42.722;23.268;2023-03-14T07:03:24;94858.84;;;1.11;65.31
42247;BME280;27913;42.722;23.268;2023-03-14T07:05:49;95047.88;;;2.46;65.17
42247;BME280;27913;42.722;23.268;2023-03-14T07:08:15;95033.53;;;2.42;64.67
42247;BME280;27913;42.722;23.268;2023-03-14T07:10:40;94853.72;;;1.41;64.63
42247;BME280;27913;42.722;23.268;2023-03-14T07:13:06;94807.44;;;1.16;63.66
42247;BME280;27913;42.722;23.268;2023-03-14T07:15:31;94997.88;;;2.44;62.92
42247;BME280;27913;42.722;23.268;2023-03-14T07:17:57;95056.78;;;2.73;63.13
42247;BME280;27913;42.722;23.268;2023-03-14T07:20:22;95051.16;;;2.78;63.40
42247;BME280;27913;42.722;23.268;2023-03-14T07:22:48;94808.19;;;1.38;63.05
42247;BME280;27913;42.722;23.268;2023-03-14T07:25:14;94800.91;;;1.22;62.51
42247;BME280;27913;42.722;23.268;2023-03-14T07:27:43;95041.03;;;2.85;62.24
42247;BME280;27913;42.722;23.268;2023-03-14T07:30:09;95037.91;;;2.81;61.84
42247;BME280;27913;42.722;23.268;2023-03-14T07:32:34;94971.78;;;2.46;62.11
42247;BME280;27913;42.722;23.268;2023-03-14T07:35:00;94982.28;;;2.64;61.92
42247;BME280;27913;42.722;23.268;2023-03-14T07:37:25;95027.09;;;3.06;61.73
42247;BME280;27913;42.722;23.268;2023-03-14T07:39:51;95022.94;;;3.13;61.40
42247;BME280;27913;42.722;23.268;2023-03-14T07:42:16;94974.22;;;2.77;60.59
42247;BME280;27913;42.722;23.268;2023-03-14T07:44:42;95030.34;;;3.18;60.46
42247;BME280;27913;42.722;23.268;2023-03-14T07:47:07;94963.25;;;2.83;60.38
42247;BME280;27913;42.722;23.268;2023-03-14T07:49:33;94935.78;;;2.71;60.45
42247;BME280;27913;42.722;23.268;2023-03-14T07:51:58;94966.09;;;2.90;61.13
42247;BME280;27913;42.722;23.268;2023-03-14T07:54:24;94967.06;;;2.89;61.52
42247;BME280;27913;42.722;23.268;2023-03-14T07:56:50;94933.72;;;2.74;61.55
42247;BME280;27913;42.722;23.268;2023-03-14T07:59:17;94978.22;;;3.19;61.18
42247;BME280;27913;42.722;23.268;2023-03-14T08:01:42;94954.00;;;3.19;61.09
42247;BME280;27913;42.722;23.268;2023-03-14T08:04:08;94964.50;;;3.27;60.38
42247;BME280;27913;42.722;23.268;2023-03-14T08:06:35;94889.81;;;2.91;60.44
42247;BME280;27913;42.722;23.268;2023-03-14T08:09:00;94893.38;;;2.90;59.79
42247;BME280;27913;42.722;23.268;2023-03-14T08:11:26;94927.31;;;3.17;59.54
42247;BME280;27913;42.722;23.268;2023-03-14T08:13:52;94952.44;;;3.36;59.69
42247;BME280;27913;42.722;23.268;2023-03-14T08:16:17;94955.41;;;3.41;59.17
42247;BME280;27913;42.722;23.268;2023-03-14T08:18:43;94877.47;;;3.03;59.36
42247;BME280;27913;42.722;23.268;2023-03-14T08:21:09;94865.16;;;3.05;59.15
42247;BME280;27913;42.722;23.268;2023-03-14T08:23:35;94902.31;;;3.44;59.27
42247;BME280;27913;42.722;23.268;2023-03-14T08:26:00;94845.03;;;3.07;59.33
42247;BME280;27913;42.722;23.268;2023-03-14T08:28:26;94948.53;;;3.78;59.30
42247;BME280;27913;42.722;23.268;2023-03-14T08:30:56;94838.56;;;3.21;58.26
42247;BME280;27913;42.722;23.268;2023-03-14T08:33:22;94993.81;;;4.32;57.87
42247;BME280;27913;42.722;23.268;2023-03-14T08:35:48;94925.16;;;3.96;57.66
42247;BME280;27913;42.722;23.268;2023-03-14T08:38:14;94935.78;;;4.03;57.99
42247;BME280;27913;42.722;23.268;2023-03-14T08:40:39;94982.06;;;4.46;58.12
42247;BME280;27913;42.722;23.268;2023-03-14T08:43:05;94966.50;;;4.54;57.67
42247;BME280;27913;42.722;23.268;2023-03-14T08:45:30;94983.97;;;4.62;56.12
42247;BME280;27913;42.722;23.268;2023-03-14T08:47:57;94951.34;;;4.50;54.19
42247;BME280;27913;42.722;23.268;2023-03-14T08:50:22;94970.41;;;4.77;53.59
42247;BME280;27913;42.722;23.268;2023-03-14T08:52:49;94783.38;;;3.64;53.13
42247;BME280;27913;42.722;23.268;2023-03-14T08:55:15;94918.47;;;4.57;52.70
42247;BME280;27913;42.722;23.268;2023-03-14T08:57:40;94950.06;;;4.99;52.34
42247;BME280;27913;42.722;23.268;2023-03-14T09:00:07;94947.50;;;5.07;52.10
42247;BME280;27913;42.722;23.268;2023-03-14T09:02:41;94935.69;;;5.21;51.33
42247;BME280;27913;42.722;23.268;2023-03-14T09:05:07;94928.91;;;5.37;50.34
42247;BME280;27913;42.722;23.268;2023-03-14T09:07:32;94904.16;;;5.41;49.44
42247;BME280;27913;42.722;23.268;2023-03-14T09:09:58;94927.84;;;5.64;48.85
42247;BME280;27913;42.722;23.268;2023-03-14T09:12:23;94922.03;;;5.79;49.14
42247;BME280;27913;42.722;23.268;2023-03-14T09:14:49;94925.66;;;5.86;47.76
42247;BME280;27913;42.722;23.268;2023-03-14T09:17:14;94778.06;;;5.15;47.87
42247;BME280;27913;42.722;23.268;2023-03-14T09:19:40;94916.06;;;6.03;48.36
42247;BME280;27913;42.722;23.268;2023-03-14T09:22:05;94835.75;;;5.72;48.21
42247;BME280;27913;42.722;23.268;2023-03-14T09:24:31;94895.69;;;6.15;47.35
42247;BME280;27913;42.722;23.268;2023-03-14T09:26:56;94830.22;;;5.84;47.38
42247;BME280;27913;42.722;23.268;2023-03-14T09:29:22;94882.34;;;6.27;47.32
42247;BME280;27913;42.722;23.268;2023-03-14T09:31:48;94875.47;;;6.43;44.59
42247;BME280;27913;42.722;23.268;2023-03-14T09:34:13;94859.47;;;6.46;43.57
42247;BME280;27913;42.722;23.268;2023-03-14T09:36:39;94626.53;;;5.10;43.79
42247;BME280;27913;42.722;23.268;2023-03-14T09:39:05;94826.16;;;6.48;44.51
42247;BME280;27913;42.722;23.268;2023-03-14T09:41:34;94859.06;;;6.91;43.83
42247;BME280;27913;42.722;23.268;2023-03-14T09:46:33;94858.03;;;7.08;43.81
42247;BME280;27913;42.722;23.268;2023-03-14T09:49:00;94722.81;;;6.45;44.32
42247;BME280;27913;42.722;23.268;2023-03-14T09:51:27;94704.00;;;6.58;43.94
42247;BME280;27913;42.722;23.268;2023-03-14T09:53:53;94763.94;;;7.00;42.02
42247;BME280;27913;42.722;23.268;2023-03-14T09:56:26;94839.28;;;7.45;42.51
42247;BME280;27913;42.722;23.268;2023-03-14T09:59:05;94844.44;;;7.53;42.35
42247;BME280;27913;42.722;23.268;2023-03-14T10:01:33;94825.09;;;7.63;42.46
42247;BME280;27913;42.722;23.268;2023-03-14T10:04:10;94826.31;;;7.75;41.40
42247;BME280;27913;42.722;23.268;2023-03-14T10:06:38;94823.69;;;7.75;41.50
42247;BME280;27913;42.722;23.268;2023-03-14T10:09:04;94577.06;;;6.32;41.52
42247;BME280;27913;42.722;23.268;2023-03-14T10:11:31;94740.91;;;7.51;41.40
42247;BME280;27913;42.722;23.268;2023-03-14T10:14:09;94745.69;;;7.70;41.13
42247;BME280;27913;42.722;23.268;2023-03-14T10:16:42;94731.19;;;7.68;40.61
42247;BME280;27913;42.722;23.268;2023-03-14T10:19:14;94652.50;;;7.46;39.94
42247;BME280;27913;42.722;23.268;2023-03-14T10:21:41;94616.13;;;7.36;40.10
42247;BME280;27913;42.722;23.268;2023-03-14T10:26:47;94711.03;;;8.07;39.89
42247;BME280;27913;42.722;23.268;2023-03-14T10:29:13;94709.59;;;8.19;40.27
42247;BME280;27913;42.722;23.268;2023-03-14T10:34:25;94691.66;;;8.46;37.21
42247;BME280;27913;42.722;23.268;2023-03-14T10:36:53;94557.78;;;7.66;37.68
42247;BME280;27913;42.722;23.268;2023-03-14T10:41:55;94598.16;;;8.17;37.75
42247;BME280;27913;42.722;23.268;2023-03-14T10:44:28;94713.13;;;9.02;37.25
42247;BME280;27913;42.722;23.268;2023-03-14T10:47:04;94660.25;;;8.84;36.83
42247;BME280;27913;42.722;23.268;2023-03-14T10:49:35;94665.84;;;8.96;36.64
42247;BME280;27913;42.722;23.268;2023-03-14T10:52:25;94694.03;;;9.30;36.19
42247;BME280;27913;42.722;23.268;2023-03-14T10:54:59;94545.72;;;8.32;36.63
42247;BME280;27913;42.722;23.268;2023-03-14T10:57:26;94692.75;;;9.41;36.39
42247;BME280;27913;42.722;23.268;2023-03-14T10:59:53;94637.44;;;9.21;36.89
42247;BME280;27913;42.722;23.268;2023-03-14T11:02:34;94627.56;;;9.23;38.09
42247;BME280;27913;42.722;23.268;2023-03-14T11:05:27;94665.00;;;9.54;38.37
42247;BME280;27913;42.722;23.268;2023-03-14T11:08:01;94616.31;;;9.29;38.60
42247;BME280;27913;42.722;23.268;2023-03-14T11:10:33;94588.41;;;9.22;39.07
42247;BME280;27913;42.722;23.268;2023-03-14T11:15:49;94579.66;;;9.36;39.17
42247;BME280;27913;42.722;23.268;2023-03-14T11:29:41;94522.44;;;9.53;40.51
42247;BME280;27913;42.722;23.268;2023-03-14T11:34:59;94487.91;;;9.57;40.93
42247;BME280;27913;42.722;23.268;2023-03-14T11:37:33;94500.38;;;9.83;40.33
42247;BME280;27913;42.722;23.268;2023-03-14T11:40:21;94584.69;;;10.37;40.37
42247;BME280;27913;42.722;23.268;2023-03-14T11:43:11;94558.06;;;10.47;40.13
42247;BME280;27913;42.722;23.268;2023-03-14T11:45:39;94564.34;;;10.53;40.44
42247;BME280;27913;42.722;23.268;2023-03-14T11:48:17;94515.94;;;10.34;40.61
42247;BME280;27913;42.722;23.268;2023-03-14T11:50:47;94505.41;;;10.34;40.27
42247;BME280;27913;42.722;23.268;2023-03-14T11:53:20;94558.97;;;10.75;39.69
42247;BME280;27913;42.722;23.268;2023-03-14T11:55:48;94446.34;;;10.16;39.43
42247;BME280;27913;42.722;23.268;2023-03-14T11:58:25;94481.78;;;10.41;39.39
42247;BME280;27913;42.722;23.268;2023-03-14T12:00:53;94373.50;;;9.89;39.32
42247;BME280;27913;42.722;23.268;2023-03-14T12:03:35;94522.97;;;10.96;39.18
42247;BME280;27913;42.722;23.268;2023-03-14T12:09:09;94410.47;;;10.50;39.36
42247;BME280;27913;42.722;23.268;2023-03-14T12:14:02;94423.19;;;10.67;38.56
42247;BME280;27913;42.722;23.268;2023-03-14T12:16:38;94459.19;;;11.14;38.03
42247;BME280;27913;42.722;23.268;2023-03-14T12:21:51;94433.28;;;11.38;38.06
42247;BME280;27913;42.722;23.268;2023-03-14T12:24:20;94441.09;;;11.65;37.70
42247;BME280;27913;42.722;23.268;2023-03-14T12:26:54;94482.28;;;12.05;37.18
42247;BME280;27913;42.722;23.268;2023-03-14T12:29:21;94428.25;;;11.89;36.94
42247;BME280;27913;42.722;23.268;2023-03-14T12:31:48;94377.63;;;11.80;36.58
42247;BME280;27913;42.722;23.268;2023-03-14T12:39:21;94417.81;;;12.08;35.35
42247;BME280;27913;42.722;23.268;2023-03-14T12:42:02;94439.84;;;12.27;35.76
42247;BME280;27913;42.722;23.268;2023-03-14T12:49:47;94427.03;;;12.70;35.54
42247;BME280;27913;42.722;23.268;2023-03-14T12:52:36;94373.56;;;12.56;35.10
42247;BME280;27913;42.722;23.268;2023-03-14T12:55:28;94386.28;;;12.85;34.46
42247;BME280;27913;42.722;23.268;2023-03-14T13:00:54;94289.94;;;12.56;34.07
42247;BME280;27913;42.722;23.268;2023-03-14T13:03:22;94413.00;;;13.39;34.14
42247;BME280;27913;42.722;23.268;2023-03-14T13:05:59;94400.88;;;13.57;33.46
42247;BME280;27913;42.722;23.268;2023-03-14T13:08:40;94398.28;;;13.69;33.10
42247;BME280;27913;42.722;23.268;2023-03-14T13:11:16;94401.94;;;13.87;32.88
42247;BME280;27913;42.722;23.268;2023-03-14T13:13:48;94157.94;;;12.51;32.10
42247;BME280;27913;42.722;23.268;2023-03-14T13:16:18;94373.50;;;14.01;32.10
42247;BME280;27913;42.722;23.268;2023-03-14T13:19:04;94283.97;;;13.43;32.37
42247;BME280;27913;42.722;23.268;2023-03-14T13:21:36;94208.25;;;13.06;32.43
42247;BME280;27913;42.722;23.268;2023-03-14T13:24:04;94326.25;;;13.93;32.20
42247;BME280;27913;42.722;23.268;2023-03-14T13:26:41;94347.69;;;14.15;31.38
42247;BME280;27913;42.722;23.268;2023-03-14T13:31:46;94261.72;;;13.70;31.79
42247;BME280;27913;42.722;23.268;2023-03-14T13:34:12;94271.81;;;13.73;31.41
42247;BME280;27913;42.722;23.268;2023-03-14T13:36:38;94300.19;;;13.96;31.50
42247;BME280;27913;42.722;23.268;2023-03-14T13:39:10;94332.44;;;14.29;31.15
42247;BME280;27913;42.722;23.268;2023-03-14T13:41:38;94150.94;;;13.25;31.57
42247;BME280;27913;42.722;23.268;2023-03-14T13:44:07;94269.97;;;14.16;30.69
42247;BME280;27913;42.722;23.268;2023-03-14T13:46:35;94087.78;;;13.12;31.08
42247;BME280;27913;42.722;23.268;2023-03-14T13:49:06;94299.25;;;14.69;30.96
42247;BME280;27913;42.722;23.268;2023-03-14T13:51:34;94314.34;;;14.93;30.03
42247;BME280;27913;42.722;23.268;2023-03-14T13:54:03;94299.03;;;14.83;29.88
42247;BME280;27913;42.722;23.268;2023-03-14T13:56:31;94137.19;;;13.90;30.33
42247;BME280;27913;42.722;23.268;2023-03-14T13:58:57;94290.88;;;14.96;30.02